Time;durP1;ratioP1;P1;durP2;ratioP2;P2;SDS_P1;SDS_P2;PMS_P1;PMS_P2;Temp;Humidity;BMP_temperature;BMP_pressure;BME280_temperature;BME280_humidity;BME280_pressure;Samples;Min_cycle;Max_cycle;Signal;HPM_P1;HPM_P2
2023/09/15 00:02:12;;;;;;;6.85;2.50;;;9.30;99.90;;;;;;5082186;28;20051;-68
2023/09/15 00:04:56;;;;;;;4.47;1.77;;;9.20;99.90;;;;;;5076416;28;20560;-68
2023/09/15 00:07:41;;;;;;;5.88;1.90;;;9.20;99.90;;;;;;5081637;28;20101;-68
2023/09/15 00:10:26;;;;;;;9.38;1.80;;;9.20;99.90;;;;;;5081161;28;20067;-68
2023/09/15 00:13:10;;;;;;;5.65;1.85;;;9.10;99.90;;;;;;5078603;28;20449;-68
2023/09/15 00:15:55;;;;;;;5.25;1.88;;;9.10;99.90;;;;;;5075473;28;20101;-68
2023/09/15 00:18:41;;;;;;;5.07;2.00;;;9.00;99.90;;;;;;5066861;28;20048;-68
2023/09/15 00:21:26;;;;;;;8.95;1.90;;;9.10;99.90;;;;;;5068324;28;20097;-68
2023/09/15 00:24:10;;;;;;;5.32;1.90;;;9.10;99.90;;;;;;5064733;28;20067;-68
2023/09/15 00:26:54;;;;;;;6.85;1.73;;;9.00;99.90;;;;;;5067390;28;20043;-68
2023/09/15 00:29:39;;;;;;;5.93;1.92;;;9.00;99.90;;;;;;5063770;28;20116;-69
2023/09/15 00:32:23;;;;;;;10.27;1.95;;;9.10;99.90;;;;;;5065292;28;20574;-68
2023/09/15 00:35:07;;;;;;;5.43;1.67;;;9.00;99.90;;;;;;5064561;28;20048;-69
2023/09/15 00:37:52;;;;;;;10.75;1.92;;;9.00;99.90;;;;;;5063849;28;20216;-69
2023/09/15 00:40:36;;;;;;;8.00;2.53;;;8.90;99.90;;;;;;5065726;28;20082;-69
2023/09/15 00:43:20;;;;;;;9.60;1.73;;;8.90;99.90;;;;;;5061341;28;20040;-69
2023/09/15 00:46:05;;;;;;;13.10;2.50;;;9.00;99.90;;;;;;5067003;28;20055;-69
2023/09/15 00:48:51;;;;;;;4.18;1.73;;;8.90;99.90;;;;;;5064420;28;20047;-69
2023/09/15 00:51:35;;;;;;;7.17;1.70;;;9.00;99.90;;;;;;5064351;28;20036;-69
2023/09/15 00:54:20;;;;;;;5.13;1.65;;;9.00;99.90;;;;;;5065994;28;20036;-68
2023/09/15 00:57:06;;;;;;;4.88;1.80;;;8.90;99.90;;;;;;5067306;28;20035;-69
2023/09/15 00:59:49;;;;;;;5.90;1.73;;;8.90;99.90;;;;;;5068373;28;20051;-69
2023/09/15 01:02:34;;;;;;;7.47;1.55;;;8.90;99.90;;;;;;5067968;28;20407;-69
2023/09/15 01:05:23;;;;;;;7.13;1.73;;;8.90;99.90;;;;;;5060453;28;20051;-69
2023/09/15 01:08:07;;;;;;;6.95;1.88;;;8.90;99.90;;;;;;5063289;28;20051;-69
2023/09/15 01:10:51;;;;;;;9.13;1.90;;;8.90;99.90;;;;;;5068238;28;20036;-69
2023/09/15 01:13:36;;;;;;;8.23;1.92;;;8.90;99.90;;;;;;5057196;28;20534;-69
2023/09/15 01:16:26;;;;;;;6.13;2.00;;;8.90;99.90;;;;;;5063065;28;20039;-69
2023/09/15 01:19:24;;;;;;;9.20;1.75;;;8.90;99.90;;;;;;5066528;28;20039;-69
2023/09/15 01:22:40;;;;;;;3.00;1.45;;;8.80;99.90;;;;;;5063325;28;20048;-69
2023/09/15 01:26:02;;;;;;;3.67;1.75;;;8.80;99.90;;;;;;5066671;28;20496;-69
2023/09/15 01:28:42;;;;;;;4.40;1.70;;;8.80;99.90;;;;;;5058931;28;20809;-69
2023/09/15 01:31:10;;;;;;;6.20;2.03;;;8.90;99.90;;;;;;5067003;28;20465;-69
2023/09/15 01:33:36;;;;;;;6.28;1.58;;;8.90;99.90;;;;;;5067745;28;20048;-69
2023/09/15 01:36:01;;;;;;;4.78;1.98;;;8.90;99.90;;;;;;5063264;28;20082;-68
2023/09/15 01:38:29;;;;;;;3.80;1.50;;;8.90;99.90;;;;;;5064927;28;20492;-69
2023/09/15 01:40:55;;;;;;;3.15;1.77;;;8.80;99.90;;;;;;5065051;28;20036;-68
2023/09/15 01:43:21;;;;;;;;;;;8.80;99.90;;;;;;5066028;28;20353;-69
2023/09/15 01:45:46;;;;;;;10.25;1.75;;;8.80;99.90;;;;;;5066661;28;20348;-68
2023/09/15 01:48:12;;;;;;;8.38;2.08;;;8.80;99.90;;;;;;5062308;28;20045;-68
2023/09/15 01:50:39;;;;;;;3.80;1.33;;;8.80;99.90;;;;;;5062819;28;20029;-69
2023/09/15 01:53:05;;;;;;;3.63;1.75;;;8.80;99.90;;;;;;5062581;28;20041;-69
2023/09/15 01:55:31;;;;;;;;;;;8.80;99.90;;;;;;5064069;28;20048;-69
2023/09/15 01:57:57;;;;;;;6.13;1.60;;;8.80;99.90;;;;;;5067029;28;20103;-69
2023/09/15 02:00:22;;;;;;;;;;;8.70;99.90;;;;;;5066242;28;20139;-69
2023/09/15 02:02:48;;;;;;;3.70;1.35;;;8.70;99.90;;;;;;5066962;28;20008;-71
2023/09/15 02:05:26;;;;;;;;;;;8.70;99.90;;;;;;5067517;28;20037;-69
2023/09/15 02:07:52;;;;;;;;;;;8.70;99.90;;;;;;5066500;28;19924;-69
2023/09/15 02:10:18;;;;;;;4.15;2.25;;;8.60;99.90;;;;;;5058980;28;20310;-69
2023/09/15 02:12:43;;;;;;;;;;;8.60;99.90;;;;;;5063920;28;20551;-69
2023/09/15 02:15:10;;;;;;;8.18;2.28;;;8.60;99.90;;;;;;5063852;28;19933;-69
2023/09/15 02:17:37;;;;;;;5.15;1.63;;;8.60;99.90;;;;;;5065535;28;20134;-69
2023/09/15 02:20:11;;;;;;;3.33;1.65;;;8.60;99.90;;;;;;5062877;28;20040;-69
2023/09/15 02:22:38;;;;;;;3.63;1.48;;;8.60;99.90;;;;;;5066756;28;20041;-69
2023/09/15 02:25:04;;;;;;;4.55;2.20;;;8.60;99.90;;;;;;5063589;28;20045;-69
2023/09/15 02:27:30;;;;;;;;;;;8.60;99.90;;;;;;5062685;28;20033;-69
2023/09/15 02:29:55;;;;;;;8.27;1.63;;;8.50;99.90;;;;;;5066213;28;19920;-69
2023/09/15 02:32:21;;;;;;;;;;;8.50;99.90;;;;;;5066352;28;20044;-69
2023/09/15 02:34:47;;;;;;;2.88;1.52;;;8.50;99.90;;;;;;5055748;28;20022;-69
2023/09/15 02:37:14;;;;;;;11.23;2.00;;;8.50;99.90;;;;;;5059745;28;20071;-69
2023/09/15 02:39:40;;;;;;;4.75;1.95;;;8.50;99.90;;;;;;5054127;28;20702;-69
2023/09/15 02:42:06;;;;;;;;;;;8.50;99.90;;;;;;5065214;28;20040;-69
2023/09/15 02:44:32;;;;;;;4.35;1.67;;;8.50;99.90;;;;;;5060016;28;19920;-69
2023/09/15 02:46:58;;;;;;;3.63;1.67;;;8.50;99.90;;;;;;5057718;28;20423;-69
2023/09/15 02:49:23;;;;;;;;;;;8.50;99.90;;;;;;5054863;28;20040;-69
2023/09/15 02:51:49;;;;;;;4.32;1.80;;;8.50;99.90;;;;;;5063576;28;20440;-69
2023/09/15 02:54:14;;;;;;;6.45;2.30;;;8.40;99.90;;;;;;5058925;28;20048;-69
2023/09/15 02:56:48;;;;;;;9.75;2.08;;;8.40;99.90;;;;;;5063573;28;20425;-69
2023/09/15 02:59:17;;;;;;;5.75;1.95;;;8.40;99.90;;;;;;5065595;28;20059;-69
2023/09/15 03:01:46;;;;;;;5.22;1.98;;;8.40;99.90;;;;;;5057050;28;20040;-69
2023/09/15 03:04:11;;;;;;;5.55;1.70;;;8.40;99.90;;;;;;5058160;28;20101;-69
2023/09/15 03:06:40;;;;;;;;;;;8.40;99.90;;;;;;5052528;28;20496;-69
2023/09/15 03:09:13;;;;;;;3.33;1.58;;;8.40;99.90;;;;;;5059673;28;20094;-69
2023/09/15 03:11:38;;;;;;;6.03;1.90;;;8.40;99.90;;;;;;5050759;28;20098;-69
2023/09/15 03:14:04;;;;;;;;;;;8.50;99.90;;;;;;5061105;28;20033;-70
2023/09/15 03:16:31;;;;;;;6.35;1.40;;;8.50;99.90;;;;;;5056731;28;20394;-69
2023/09/15 03:18:57;;;;;;;4.10;1.60;;;8.40;99.90;;;;;;5057542;28;20036;-69
2023/09/15 03:21:25;;;;;;;3.30;1.23;;;8.40;99.90;;;;;;5059693;28;20047;-69
2023/09/15 03:23:51;;;;;;;4.40;1.42;;;8.40;99.90;;;;;;5059169;28;20480;-69
2023/09/15 03:26:16;;;;;;;;;;;8.40;99.90;;;;;;5063469;28;20094;-69
2023/09/15 03:28:42;;;;;;;8.15;1.98;;;8.50;99.90;;;;;;5059901;28;19920;-69
2023/09/15 03:31:08;;;;;;;;;;;8.40;99.90;;;;;;5058270;28;20033;-69
2023/09/15 03:33:33;;;;;;;6.18;1.75;;;8.40;99.90;;;;;;5056305;28;19916;-68
2023/09/15 03:36:00;;;;;;;;;;;8.40;99.90;;;;;;5061698;28;20049;-68
2023/09/15 03:38:25;;;;;;;4.90;1.65;;;8.30;99.90;;;;;;5066622;28;20368;-68
2023/09/15 03:40:53;;;;;;;;;;;8.30;99.90;;;;;;5057174;28;20098;-68
2023/09/15 03:43:19;;;;;;;3.15;1.60;;;8.30;99.90;;;;;;5047779;28;20380;-66
2023/09/15 03:45:46;;;;;;;;;;;8.20;99.90;;;;;;5060641;28;20095;-67
2023/09/15 03:48:11;;;;;;;4.68;1.85;;;8.20;99.90;;;;;;5057070;28;19993;-67
2023/09/15 03:50:37;;;;;;;8.15;2.10;;;8.20;99.90;;;;;;5058109;28;20044;-67
2023/09/15 03:53:03;;;;;;;;;;;8.20;99.90;;;;;;5064231;28;20126;-67
2023/09/15 03:55:28;;;;;;;4.05;1.50;;;8.20;99.90;;;;;;5067356;28;20375;-67
2023/09/15 03:57:54;;;;;;;3.78;1.70;;;8.20;99.90;;;;;;5065691;28;20059;-67
2023/09/15 04:00:21;;;;;;;;;;;8.20;99.90;;;;;;5063887;28;20646;-67
2023/09/15 04:02:47;;;;;;;;;;;8.20;99.90;;;;;;5065862;28;20402;-67
2023/09/15 04:05:13;;;;;;;6.07;1.90;;;8.20;99.90;;;;;;5060806;28;19956;-67
2023/09/15 04:07:38;;;;;;;6.07;1.83;;;8.10;99.90;;;;;;5063454;28;20504;-67
2023/09/15 04:10:05;;;;;;;;;;;8.10;99.90;;;;;;5063479;28;20556;-67
2023/09/15 04:12:32;;;;;;;6.53;1.83;;;8.10;99.90;;;;;;5062519;28;19920;-67
2023/09/15 04:14:58;;;;;;;4.55;1.70;;;8.10;99.90;;;;;;5069553;28;20052;-67
2023/09/15 04:17:24;;;;;;;;;;;8.10;99.90;;;;;;5069752;28;20059;-67
2023/09/15 04:19:50;;;;;;;6.63;1.85;;;8.10;99.90;;;;;;5068692;28;19927;-68
2023/09/15 04:22:15;;;;;;;4.82;1.95;;;8.10;99.90;;;;;;5069524;28;20032;-67
2023/09/15 04:24:41;;;;;;;3.97;1.90;;;8.10;99.90;;;;;;5069990;28;20062;-67
2023/09/15 04:27:06;;;;;;;;;;;8.00;99.90;;;;;;5068091;28;20117;-67
2023/09/15 04:29:32;;;;;;;5.10;2.08;;;8.00;99.90;;;;;;5069758;28;19923;-67
2023/09/15 04:31:58;;;;;;;;;;;8.00;99.90;;;;;;5068651;28;20049;-67
2023/09/15 04:34:24;;;;;;;5.47;1.83;;;8.00;99.90;;;;;;5069524;28;19924;-68
2023/09/15 04:36:50;;;;;;;5.20;1.45;;;8.00;99.90;;;;;;5069134;28;20041;-68
2023/09/15 04:39:16;;;;;;;;;;;8.00;99.90;;;;;;5069089;28;20047;-67
2023/09/15 04:41:42;;;;;;;4.25;1.98;;;8.00;99.90;;;;;;5068244;28;19981;-67
2023/09/15 04:44:07;;;;;;;;;;;7.90;99.90;;;;;;5065047;28;20037;-67
2023/09/15 04:46:33;;;;;;;6.65;1.83;;;8.00;99.90;;;;;;5067777;28;19931;-68
2023/09/15 04:48:59;;;;;;;6.10;1.70;;;8.00;99.90;;;;;;5067462;28;20036;-67
2023/09/15 04:51:24;;;;;;;;;;;8.00;99.90;;;;;;5068214;28;20036;-68
2023/09/15 04:53:50;;;;;;;6.72;1.70;;;7.90;99.90;;;;;;5065633;28;19920;-67
2023/09/15 04:56:15;;;;;;;5.45;2.05;;;7.90;99.90;;;;;;5069161;28;20044;-66
2023/09/15 04:58:45;;;;;;;;;;;7.90;99.90;;;;;;5067622;28;20038;-67
2023/09/15 05:01:11;;;;;;;4.13;1.88;;;7.90;99.90;;;;;;5063089;28;19922;-67
2023/09/15 05:03:38;;;;;;;7.72;1.88;;;7.90;99.90;;;;;;5063951;28;20045;-67
2023/09/15 05:06:05;;;;;;;6.05;2.15;;;7.90;99.90;;;;;;5068683;28;20122;-67
2023/09/15 05:08:31;;;;;;;3.03;1.65;;;7.90;99.90;;;;;;5064854;28;20045;-67
2023/09/15 05:10:56;;;;;;;;;;;7.90;99.90;;;;;;5069146;28;20555;-67
2023/09/15 05:13:22;;;;;;;3.22;1.45;;;8.00;99.90;;;;;;5068163;28;20326;-68
2023/09/15 05:15:47;;;;;;;;;;;7.90;99.90;;;;;;5069133;28;20040;-68
2023/09/15 05:18:13;;;;;;;6.05;2.10;;;7.90;99.90;;;;;;5068025;28;20284;-67
2023/09/15 05:20:38;;;;;;;;;;;7.90;99.90;;;;;;5067944;28;20397;-66
2023/09/15 05:23:04;;;;;;;3.17;1.83;;;7.90;99.90;;;;;;5064263;28;19963;-67
2023/09/15 05:25:30;;;;;;;;;;;7.90;99.90;;;;;;5064436;28;20056;-67
2023/09/15 05:28:39;;;;;;;5.20;2.22;;;7.90;99.90;;;;;;5066926;28;19969;-69
2023/09/15 05:31:07;;;;;;;4.78;1.85;;;7.90;99.90;;;;;;5065391;28;20032;-69
2023/09/15 05:33:33;;;;;;;6.60;2.00;;;8.00;99.90;;;;;;5065660;28;20055;-67
2023/09/15 05:35:59;;;;;;;3.95;1.92;;;8.10;99.90;;;;;;5064048;28;20079;-68
2023/09/15 05:38:25;;;;;;;;;;;8.20;99.90;;;;;;5067460;28;20072;-65
2023/09/15 05:40:51;;;;;;;6.17;1.63;;;8.30;99.90;;;;;;5063781;28;19917;-66
2023/09/15 05:43:17;;;;;;;;;;;8.20;99.90;;;;;;5062405;28;20106;-65
2023/09/15 05:45:44;;;;;;;6.63;2.03;;;8.30;99.90;;;;;;5065111;28;19920;-64
2023/09/15 05:48:12;;;;;;;9.60;2.40;;;8.40;99.90;;;;;;5064204;28;20057;-63
2023/09/15 05:50:38;;;;;;;7.53;2.35;;;8.40;99.90;;;;;;5066388;28;20044;-66
2023/09/15 05:53:04;;;;;;;3.88;1.90;;;8.70;99.90;;;;;;5057520;28;20048;-64
2023/09/15 05:55:30;;;;;;;6.05;2.08;;;8.60;99.90;;;;;;5060432;28;20028;-66
2023/09/15 05:57:56;;;;;;;;;;;8.80;99.90;;;;;;5058079;28;20407;-66
2023/09/15 06:00:22;;;;;;;3.90;2.25;;;8.90;99.90;;;;;;5063728;28;20372;-67
2023/09/15 06:02:50;;;;;;;;;;;8.90;99.90;;;;;;5060615;28;20040;-67
2023/09/15 06:05:21;;;;;;;6.15;2.50;;;8.90;99.90;;;;;;5062091;28;19924;-70
2023/09/15 06:07:50;;;;;;;5.63;2.25;;;9.00;99.90;;;;;;5063656;28;20044;-70
2023/09/15 06:10:16;;;;;;;4.63;2.40;;;9.00;99.90;;;;;;5066199;28;20048;-70
2023/09/15 06:12:42;;;;;;;;;;;9.00;99.90;;;;;;5061545;28;20094;-70
2023/09/15 06:15:08;;;;;;;5.47;2.43;;;9.00;99.90;;;;;;5061665;28;20380;-71
2023/09/15 06:17:34;;;;;;;;;;;9.10;99.90;;;;;;5065523;28;20033;-70
2023/09/15 06:20:00;;;;;;;15.68;2.00;;;9.20;99.90;;;;;;5058698;28;20398;-67
2023/09/15 06:22:26;;;;;;;6.78;2.67;;;9.20;99.90;;;;;;5067181;28;20710;-69
2023/09/15 06:24:52;;;;;;;5.57;2.28;;;9.30;99.90;;;;;;5062112;28;20049;-68
2023/09/15 06:27:17;;;;;;;;;;;9.40;99.90;;;;;;5066126;28;20139;-69
2023/09/15 06:29:43;;;;;;;4.97;2.63;;;9.30;99.90;;;;;;5061145;28;19917;-69
2023/09/15 06:32:09;;;;;;;7.88;2.80;;;9.50;99.90;;;;;;5060326;28;20071;-69
2023/09/15 06:34:35;;;;;;;;;;;9.60;99.90;;;;;;5065764;28;20484;-69
2023/09/15 06:37:01;;;;;;;8.18;2.80;;;9.60;99.90;;;;;;5067021;28;19916;-69
2023/09/15 06:39:28;;;;;;;7.13;3.05;;;9.70;99.90;;;;;;5056408;28;20057;-69
2023/09/15 06:41:54;;;;;;;6.88;3.30;;;9.70;99.90;;;;;;5061001;28;20055;-69
2023/09/15 06:44:19;;;;;;;;;;;9.90;99.90;;;;;;5060302;28;20041;-69
2023/09/15 06:46:45;;;;;;;6.75;3.20;;;9.90;99.90;;;;;;5061300;28;19930;-69
2023/09/15 06:49:11;;;;;;;8.40;2.70;;;10.00;99.90;;;;;;5063186;28;20093;-69
2023/09/15 06:51:37;;;;;;;6.15;3.20;;;10.10;99.90;;;;;;5064229;28;20068;-69
2023/09/15 06:54:03;;;;;;;;;;;10.20;99.90;;;;;;5066594;28;20060;-69
2023/09/15 06:56:28;;;;;;;6.80;3.28;;;10.30;99.90;;;;;;5061477;28;20006;-66
2023/09/15 06:58:54;;;;;;;;;;;10.50;99.90;;;;;;5066215;28;20460;-68
2023/09/15 07:01:19;;;;;;;4.55;2.55;;;10.60;99.90;;;;;;5062262;28;19931;-68
2023/09/15 07:03:45;;;;;;;8.95;3.47;;;10.70;99.90;;;;;;5064362;28;20066;-68
2023/09/15 07:06:12;;;;;;;;;;;10.80;99.90;;;;;;5063629;28;20037;-68
2023/09/15 07:08:38;;;;;;;7.40;2.95;;;10.90;99.90;;;;;;5064099;28;19928;-68
2023/09/15 07:11:03;;;;;;;7.15;3.20;;;11.10;99.90;;;;;;5066591;28;20040;-68
2023/09/15 07:13:29;;;;;;;;;;;11.30;99.90;;;;;;5068428;28;20048;-68
2023/09/15 07:15:54;;;;;;;7.13;3.15;;;11.60;99.90;;;;;;5066736;28;19943;-68
2023/09/15 07:18:20;;;;;;;;;;;11.90;99.90;;;;;;5065959;28;20519;-68
2023/09/15 07:20:54;;;;;;;9.68;4.90;;;12.00;99.90;;;;;;5063446;28;20050;-68
2023/09/15 07:23:20;;;;;;;9.07;4.88;;;12.20;99.90;;;;;;5064119;28;20388;-68
2023/09/15 07:25:47;;;;;;;;;;;12.30;99.90;;;;;;5060511;28;20044;-68
2023/09/15 07:28:13;;;;;;;6.65;4.28;;;12.30;99.90;;;;;;5067061;28;19924;-67
2023/09/15 07:30:38;;;;;;;;;;;12.30;99.90;;;;;;5070497;28;20040;-68
2023/09/15 07:33:04;;;;;;;6.95;4.05;;;12.40;99.90;;;;;;5069343;28;19916;-68
2023/09/15 07:35:29;;;;;;;;;;;12.50;99.90;;;;;;5070649;28;20365;-68
2023/09/15 07:37:55;;;;;;;8.20;4.25;;;12.50;99.90;;;;;;5070887;28;19916;-69
2023/09/15 07:40:22;;;;;;;;;;;12.70;99.90;;;;;;5067904;28;20048;-66
2023/09/15 07:42:48;;;;;;;6.80;3.53;;;12.70;99.90;;;;;;5071002;28;19917;-66
2023/09/15 07:45:14;;;;;;;8.18;4.20;;;12.80;99.90;;;;;;5068245;28;20517;-68
2023/09/15 07:47:40;;;;;;;;;;;13.00;99.90;;;;;;5067740;28;20048;-68
2023/09/15 07:50:06;;;;;;;8.93;4.65;;;13.00;99.90;;;;;;5070201;28;19920;-68
2023/09/15 07:52:33;;;;;;;9.55;4.65;;;13.20;99.90;;;;;;5069757;28;20044;-67
2023/09/15 07:55:00;;;;;;;10.00;4.60;;;13.30;99.90;;;;;;5069500;28;20103;-67
2023/09/15 07:57:25;;;;;;;9.65;3.92;;;13.40;99.90;;;;;;5069728;28;20122;-66
2023/09/15 07:59:52;;;;;;;;;;;13.60;99.90;;;;;;5070689;28;20045;-68
2023/09/15 08:02:18;;;;;;;8.82;4.47;;;13.70;99.90;;;;;;5063310;28;20114;-67
2023/09/15 08:04:44;;;;;;;10.02;5.43;;;13.80;99.90;;;;;;5058131;28;20092;-68
2023/09/15 08:07:10;;;;;;;;;;;14.00;99.90;;;;;;5063235;28;20127;-67
2023/09/15 08:09:36;;;;;;;6.35;3.90;;;14.10;99.90;;;;;;5063426;28;19923;-68
2023/09/15 08:12:03;;;;;;;;;;;14.30;99.90;;;;;;5067598;28;20075;-68
2023/09/15 08:14:29;;;;;;;11.98;5.20;;;14.60;99.90;;;;;;5065728;28;19925;-68
2023/09/15 08:17:02;;;;;;;7.57;4.03;;;14.90;99.90;;;;;;5069327;28;20087;-68
2023/09/15 08:19:28;;;;;;;8.85;4.32;;;16.00;99.90;;;;;;5064905;28;20475;-67
2023/09/15 08:21:53;;;;;;;;;;;17.50;99.90;;;;;;5069415;28;20050;-68
2023/09/15 08:24:20;;;;;;;6.05;3.30;;;18.90;99.90;;;;;;5066306;28;20284;-67
2023/09/15 08:26:46;;;;;;;7.25;3.88;;;19.40;99.90;;;;;;5069020;28;20040;-67
2023/09/15 08:29:12;;;;;;;6.70;4.35;;;18.90;99.90;;;;;;5067673;28;20043;-67
2023/09/15 08:31:38;;;;;;;;;;;18.00;99.90;;;;;;5067093;28;20127;-67
2023/09/15 08:34:04;;;;;;;7.25;3.60;;;17.30;99.90;;;;;;5065961;28;20019;-66
2023/09/15 08:36:30;;;;;;;;;;;16.80;99.90;;;;;;5068548;28;20052;-67
2023/09/15 08:38:55;;;;;;;5.63;3.83;;;16.40;99.90;;;;;;5068780;28;19969;-66
2023/09/15 08:41:52;;;;;;;8.07;4.00;;;16.20;99.90;;;;;;5069481;28;20039;-67
2023/09/15 08:44:18;;;;;;;9.02;4.43;;;16.10;99.90;;;;;;5068105;28;20117;-67
2023/09/15 08:46:45;;;;;;;6.65;4.82;;;16.20;99.90;;;;;;5068356;28;20686;-67
2023/09/15 08:49:11;;;;;;;8.45;4.13;;;16.20;99.90;;;;;;5068655;28;20064;-67
2023/09/15 08:51:38;;;;;;;7.65;4.30;;;16.20;99.90;;;;;;5066543;28;20095;-67
2023/09/15 08:54:04;;;;;;;8.95;4.75;;;16.30;99.90;;;;;;5067095;28;20046;-67
2023/09/15 08:56:30;;;;;;;7.95;4.82;;;16.40;99.90;;;;;;5067521;28;20048;-67
2023/09/15 08:58:59;;;;;;;;;;;16.40;99.90;;;;;;5068817;28;20107;-67
2023/09/15 09:01:25;;;;;;;6.88;4.57;;;16.50;99.90;;;;;;5065062;28;19921;-67
2023/09/15 09:03:50;;;;;;;;;;;16.60;99.90;;;;;;5068352;28;20036;-65
2023/09/15 09:06:17;;;;;;;7.60;4.40;;;16.80;99.90;;;;;;5068464;28;19924;-66
2023/09/15 09:08:46;;;;;;;9.48;4.55;;;16.80;99.90;;;;;;5068252;28;20153;-65
2023/09/15 09:11:13;;;;;;;7.82;4.22;;;16.90;99.90;;;;;;5069137;28;20140;-66
2023/09/15 09:13:39;;;;;;;11.70;5.43;;;16.90;99.90;;;;;;5068138;28;20097;-66
2023/09/15 09:16:07;;;;;;;5.20;4.05;;;17.10;99.90;;;;;;5067475;28;20032;-66
2023/09/15 09:18:34;;;;;;;8.52;4.15;;;17.20;99.90;;;;;;5067510;28;20045;-66
2023/09/15 09:21:04;;;;;;;7.47;4.10;;;17.40;99.90;;;;;;5067336;28;20040;-67
2023/09/15 09:23:30;;;;;;;9.38;4.43;;;17.40;99.90;;;;;;5067447;28;20040;-66
2023/09/15 09:25:58;;;;;;;;;;;17.50;99.90;;;;;;5067138;28;20037;-67
2023/09/15 09:28:23;;;;;;;5.05;3.58;;;17.60;99.90;;;;;;5061486;28;19921;-67
2023/09/15 09:30:52;;;;;;;;;;;17.80;99.90;;;;;;5066937;28;20105;-67
2023/09/15 09:33:22;;;;;;;7.85;3.38;;;17.80;99.90;;;;;;5068333;28;19916;-67
2023/09/15 09:35:48;;;;;;;4.72;3.33;;;17.70;99.90;;;;;;5066196;28;20380;-68
2023/09/15 09:38:15;;;;;;;4.85;2.90;;;17.80;99.90;;;;;;5067694;28;20087;-67
2023/09/15 09:40:40;;;;;;;5.95;3.20;;;17.90;99.90;;;;;;5064967;28;20044;-67
2023/09/15 09:43:06;;;;;;;;;;;17.90;99.90;;;;;;5067620;28;20040;-67
2023/09/15 09:45:31;;;;;;;6.05;3.45;;;18.10;99.90;;;;;;5065492;28;19920;-67
2023/09/15 09:48:00;;;;;;;5.82;3.30;;;18.00;99.90;;;;;;5062417;28;20078;-68
2023/09/15 09:50:29;;;;;;;9.30;3.92;;;17.90;99.90;;;;;;5062163;28;20071;-70
2023/09/15 09:52:55;;;;;;;9.55;3.30;;;18.10;99.90;;;;;;5059911;28;20043;-69
2023/09/15 09:55:21;;;;;;;8.73;2.60;;;18.20;99.90;;;;;;5068194;28;20455;-69
2023/09/15 09:57:47;;;;;;;4.97;3.10;;;18.30;99.90;;;;;;5063238;28;20052;-66
2023/09/15 10:00:20;;;;;;;;;;;18.50;99.90;;;;;;5068166;28;20039;-66
2023/09/15 10:02:47;;;;;;;6.30;2.78;;;18.60;99.90;;;;;;5066619;28;19920;-66
2023/09/15 10:05:13;;;;;;;4.70;2.90;;;18.70;99.90;;;;;;5067739;28;20055;-66
2023/09/15 10:07:39;;;;;;;;;;;18.90;99.90;;;;;;5067573;28;20036;-65
2023/09/15 10:10:06;;;;;;;9.32;3.90;;;18.90;99.90;;;;;;5067242;28;19998;-67
2023/09/15 10:16:27;;;;;;;7.07;2.72;;;19.10;99.90;;;;;;5021825;28;20188;-68
2023/09/15 10:18:53;;;;;;;7.32;3.75;;;19.20;99.90;;;;;;5014500;28;20053;-68
2023/09/15 10:21:19;;;;;;;;;;;19.20;99.90;;;;;;5048639;28;20045;-68
2023/09/15 10:23:44;;;;;;;7.93;3.00;;;19.30;99.90;;;;;;5059269;28;19963;-69
2023/09/15 10:26:16;;;;;;;7.22;3.70;;;19.20;99.90;;;;;;5062578;28;20499;-68
2023/09/15 10:29:17;;;;;;;7.88;3.25;;;19.20;99.90;;;;;;5056690;28;20321;-68
2023/09/15 10:31:46;;;;;;;5.15;3.03;;;19.30;99.90;;;;;;5060964;28;20127;-69
2023/09/15 10:34:13;;;;;;;6.43;3.17;;;19.30;99.90;;;;;;5063712;28;20036;-69
2023/09/15 10:36:40;;;;;;;7.20;3.03;;;19.30;99.90;;;;;;5066587;28;20036;-68
2023/09/15 10:39:17;;;;;;;6.47;3.38;;;19.40;99.90;;;;;;5063309;28;20039;-68
2023/09/15 10:41:43;;;;;;;6.22;3.47;;;19.50;99.90;;;;;;5065899;28;20109;-68
2023/09/15 10:44:09;;;;;;;4.82;2.72;;;19.60;99.90;;;;;;5068416;28;20539;-68
2023/09/15 10:46:36;;;;;;;6.15;3.28;;;19.60;99.90;;;;;;5070869;28;20040;-68
2023/09/15 10:49:13;;;;;;;6.93;3.40;;;19.70;99.90;;;;;;5067597;28;20574;-68
2023/09/15 10:51:49;;;;;;;6.22;3.17;;;19.70;99.90;;;;;;5067413;28;20040;-68
2023/09/15 10:54:15;;;;;;;7.55;3.40;;;19.60;99.90;;;;;;5067118;28;20045;-68
2023/09/15 10:56:40;;;;;;;9.07;3.65;;;19.60;99.90;;;;;;5067541;28;20680;-68
2023/09/15 10:59:06;;;;;;;5.63;3.67;;;19.60;99.90;;;;;;5065419;28;20045;-69
2023/09/15 11:01:32;;;;;;;5.35;3.25;;;19.50;99.90;;;;;;5068754;28;20075;-68
2023/09/15 11:04:00;;;;;;;6.88;3.03;;;19.50;99.90;;;;;;5066849;28;20474;-68
2023/09/15 11:06:29;;;;;;;5.82;3.83;;;19.60;99.90;;;;;;5065487;28;20059;-69
2023/09/15 11:08:56;;;;;;;5.88;3.10;;;19.80;99.90;;;;;;5066744;28;20053;-67
2023/09/15 11:11:23;;;;;;;5.32;3.20;;;20.00;99.90;;;;;;5067143;28;20052;-68
2023/09/15 11:13:48;;;;;;;7.00;3.47;;;20.00;99.90;;;;;;5066334;28;20044;-68
2023/09/15 11:16:14;;;;;;;7.55;3.05;;;19.90;99.90;;;;;;5066816;28;20043;-68
2023/09/15 11:18:40;;;;;;;10.38;3.50;;;20.00;99.90;;;;;;5066537;28;20037;-68
2023/09/15 11:21:06;;;;;;;5.07;3.03;;;20.10;99.90;;;;;;5063901;28;20115;-68
2023/09/15 11:23:32;;;;;;;4.80;3.30;;;20.10;99.90;;;;;;5061777;28;20556;-67
2023/09/15 11:26:00;;;;;;;9.43;2.97;;;20.10;99.90;;;;;;5065332;28;20044;-67
2023/09/15 11:28:28;;;;;;;5.25;2.97;;;20.20;99.90;;;;;;5066887;28;20047;-67
2023/09/15 11:30:54;;;;;;;6.35;3.03;;;20.20;99.90;;;;;;5062549;28;20071;-68
2023/09/15 11:33:19;;;;;;;5.93;3.15;;;20.20;99.90;;;;;;5063988;28;20083;-68
2023/09/15 11:35:49;;;;;;;5.72;2.95;;;20.00;99.90;;;;;;5061714;28;20047;-69
2023/09/15 11:38:15;;;;;;;5.15;3.65;;;20.00;99.90;;;;;;5032677;22;20057;-69
2023/09/15 11:40:50;;;;;;;5.82;3.38;;;20.00;99.90;;;;;;5027417;28;20070;-68
2023/09/15 11:43:19;;;;;;;5.57;3.03;;;20.10;99.90;;;;;;5029387;28;20408;-69
2023/09/15 11:45:45;;;;;;;4.60;2.80;;;20.00;99.90;;;;;;5034871;28;20068;-69
2023/09/15 11:48:22;;;;;;;4.93;2.67;;;20.10;99.90;;;;;;5037904;28;20420;-69
2023/09/15 11:50:48;;;;;;;8.85;3.20;;;20.10;99.90;;;;;;5027180;28;20062;-68
2023/09/15 11:53:21;;;;;;;4.80;2.88;;;20.10;99.90;;;;;;5024572;28;20048;-69
2023/09/15 11:55:51;;;;;;;4.38;2.58;;;20.00;99.90;;;;;;5035385;28;20041;-68
2023/09/15 11:58:17;;;;;;;6.30;2.70;;;20.00;99.90;;;;;;5027283;28;20824;-67
2023/09/15 12:00:43;;;;;;;4.85;2.90;;;20.00;99.90;;;;;;5024263;28;20049;-69
2023/09/15 12:03:11;;;;;;;5.78;2.67;;;20.10;99.90;;;;;;5038050;28;20041;-68
2023/09/15 12:05:37;;;;;;;3.97;2.50;;;20.30;99.90;;;;;;5023987;28;20048;-68
2023/09/15 12:08:08;;;;;;;5.82;2.53;;;20.20;99.90;;;;;;5023850;28;20037;-69
2023/09/15 12:10:37;;;;;;;4.53;2.40;;;20.20;99.90;;;;;;5030567;28;20047;-69
2023/09/15 12:13:03;;;;;;;3.40;2.38;;;20.30;99.90;;;;;;5020908;28;20131;-68
2023/09/15 12:15:29;;;;;;;7.07;2.83;;;20.30;99.90;;;;;;5028070;28;20124;-68
2023/09/15 12:17:56;;;;;;;3.50;2.17;;;20.40;99.90;;;;;;5029722;28;20501;-68
2023/09/15 12:20:23;;;;;;;4.63;2.65;;;20.40;99.90;;;;;;5028071;28;20041;-68
2023/09/15 12:22:49;;;;;;;3.92;2.40;;;20.30;99.90;;;;;;5026609;28;20065;-69
2023/09/15 12:25:16;;;;;;;4.80;2.50;;;20.50;99.90;;;;;;5029161;28;20064;-68
2023/09/15 12:27:42;;;;;;;6.97;2.78;;;20.60;99.90;;;;;;5038889;28;20037;-67
2023/09/15 12:30:11;;;;;;;5.30;2.65;;;20.70;99.90;;;;;;5038374;28;20049;-68
2023/09/15 12:32:37;;;;;;;3.35;2.15;;;20.70;99.90;;;;;;5043417;28;20507;-68
2023/09/15 12:35:09;;;;;;;5.07;2.42;;;20.70;99.90;;;;;;5033883;28;20042;-68
2023/09/15 12:37:41;;;;;;;6.22;2.47;;;20.70;99.90;;;;;;5038022;28;20052;-68
2023/09/15 12:40:07;;;;;;;4.43;2.20;;;20.60;99.90;;;;;;5030859;28;20041;-68
2023/09/15 12:42:33;;;;;;;2.55;2.08;;;20.60;99.90;;;;;;5033595;28;20155;-69
2023/09/15 12:44:59;;;;;;;4.60;2.50;;;20.80;99.90;;;;;;5040445;28;20718;-68
2023/09/15 12:47:24;;;;;;;4.35;2.55;;;20.80;99.90;;;;;;5048784;28;20039;-68
2023/09/15 12:49:50;;;;;;;3.20;2.42;;;20.80;99.90;;;;;;5032583;28;20416;-68
2023/09/15 12:52:15;;;;;;;4.55;2.17;;;20.70;99.90;;;;;;5028913;28;20064;-68
2023/09/15 12:54:41;;;;;;;5.07;2.10;;;20.50;99.80;;;;;;5036922;28;20033;-68
2023/09/15 12:57:07;;;;;;;6.25;2.22;;;20.60;99.80;;;;;;5041832;28;20555;-68
2023/09/15 12:59:33;;;;;;;4.00;2.30;;;20.60;99.90;;;;;;5034673;28;20053;-67
2023/09/15 13:01:58;;;;;;;3.00;2.20;;;20.80;99.90;;;;;;5023907;28;20076;-67
2023/09/15 13:04:25;;;;;;;4.88;2.33;;;20.90;99.90;;;;;;5034385;28;20116;-68
2023/09/15 13:06:51;;;;;;;3.53;2.15;;;21.00;99.90;;;;;;5031859;28;20045;-68
2023/09/15 13:09:17;;;;;;;4.25;2.20;;;21.10;99.90;;;;;;5032458;28;20053;-68
2023/09/15 13:11:43;;;;;;;4.88;2.13;;;21.10;99.60;;;;;;5035664;28;20040;-68
2023/09/15 13:14:09;;;;;;;5.45;2.47;;;21.10;99.90;;;;;;5034212;28;20408;-68
2023/09/15 13:16:34;;;;;;;3.75;2.22;;;21.20;99.90;;;;;;5038655;28;20071;-68
2023/09/15 13:19:01;;;;;;;4.72;2.25;;;21.00;99.50;;;;;;5032644;28;20137;-68
2023/09/15 13:21:33;;;;;;;3.92;2.08;;;21.10;99.90;;;;;;5034845;28;20041;-68